Time;durP1;ratioP1;P1;durP2;ratioP2;P2;SDS_P1;SDS_P2;PMS_P1;PMS_P2;Temp;Humidity;BMP_temperature;BMP_pressure;BME280_temperature;BME280_humidity;BME280_pressure;Samples;Min_cycle;Max_cycle;Signal;HPM_P1;HPM_P2
2022/07/03 00:00:35;;;;;;;;;;;16.90;99.90;;;;;;5084529;28;19921;-90
2022/07/03 00:03:02;;;;;;;;;;;16.90;99.90;;;;;;5083799;28;20335;-90
2022/07/03 00:05:30;;;;;;;;;;;16.80;99.90;;;;;;5083844;28;19924;-90
2022/07/03 00:07:57;;;;;;;;;;;16.80;99.90;;;;;;5083867;28;19920;-90
2022/07/03 00:10:24;;;;;;;;;;;16.70;99.90;;;;;;5084082;28;20281;-90
2022/07/03 00:12:51;;;;;;;;;;;16.70;99.90;;;;;;5083677;28;19948;-91
2022/07/03 00:15:18;;;;;;;;;;;16.70;99.90;;;;;;5083995;28;19920;-91
2022/07/03 00:17:44;;;;;;;;;;;16.60;99.90;;;;;;5083918;28;19925;-90
2022/07/03 00:20:11;;;;;;;;;;;16.50;99.90;;;;;;5083730;28;19954;-91
2022/07/03 00:22:43;;;;;;;;;;;16.50;99.90;;;;;;5083590;28;19921;-90
2022/07/03 00:25:11;;;;;;;;;;;16.50;99.90;;;;;;5083985;28;19920;-90
2022/07/03 00:27:39;;;;;;;;;;;16.40;99.90;;;;;;5083781;28;19987;-90
2022/07/03 00:30:07;;;;;;;;;;;16.40;99.90;;;;;;5083596;28;19939;-90
2022/07/03 00:32:34;;;;;;;;;;;16.40;99.90;;;;;;5083790;28;19960;-90
2022/07/03 00:35:02;;;;;;;;;;;16.30;99.90;;;;;;5083881;28;19952;-90
2022/07/03 00:37:29;;;;;;;;;;;16.30;99.90;;;;;;5083593;28;19950;-90
2022/07/03 00:39:58;;;;;;;;;;;16.30;99.90;;;;;;5082786;28;19921;-90
2022/07/03 00:42:24;;;;;;;;;;;16.20;99.90;;;;;;5083549;28;19920;-89
2022/07/03 00:44:52;;;;;;;;;;;16.20;99.90;;;;;;5083681;28;19973;-90
2022/07/03 00:47:20;;;;;;;;;;;16.10;99.90;;;;;;5083545;28;19921;-91
2022/07/03 00:49:48;;;;;;;;;;;16.10;99.90;;;;;;5083632;28;19920;-91
2022/07/03 00:52:15;;;;;;;;;;;16.10;99.90;;;;;;5083366;28;20215;-91
2022/07/03 00:54:44;;;;;;;;;;;16.00;99.90;;;;;;5083276;28;19928;-90
2022/07/03 00:57:14;;;;;;;;;;;16.00;99.90;;;;;;5083379;28;20176;-91
2022/07/03 00:59:42;;;;;;;;;;;15.90;99.90;;;;;;5083397;28;19920;-91
2022/07/03 01:02:09;;;;;;;;;;;15.90;99.90;;;;;;5083238;28;19927;-89
2022/07/03 01:04:40;;;;;;;;;;;15.80;99.90;;;;;;5083374;28;19927;-90
2022/07/03 01:07:08;;;;;;;;;;;15.70;99.90;;;;;;5083427;28;19995;-90
2022/07/03 01:09:38;;;;;;;;;;;15.70;99.90;;;;;;5083551;28;19929;-91
2022/07/03 01:12:07;;;;;;;;;;;15.60;99.90;;;;;;5083389;28;19921;-91
2022/07/03 01:14:41;;;;;;;;;;;15.50;99.90;;;;;;5083132;28;20258;-91
2022/07/03 01:17:12;;;;;;;;;;;15.50;99.90;;;;;;5096222;22;19927;-69
2022/07/03 01:19:41;;;;;;;;;;;15.40;99.90;;;;;;5082835;28;19952;-70
2022/07/03 01:22:18;;;;;;;;;;;15.40;99.90;;;;;;5082393;28;19948;-72
2022/07/03 01:24:52;;;;;;;;;;;15.30;99.90;;;;;;5082373;28;19929;-70
2022/07/03 01:27:28;;;;;;;;;;;15.30;99.90;;;;;;5083048;28;20030;-70
2022/07/03 01:30:00;;;;;;;;;;;15.30;99.90;;;;;;5082959;28;20182;-70
2022/07/03 01:32:30;;;;;;;;;;;15.30;99.90;;;;;;5082443;28;20166;-70
2022/07/03 01:34:58;;;;;;;;;;;15.30;99.90;;;;;;5079896;28;19927;-70
2022/07/03 01:37:27;;;;;;;;;;;15.30;99.90;;;;;;5082289;28;19924;-69
2022/07/03 01:39:54;;;;;;;;;;;15.30;99.90;;;;;;5082984;28;19927;-70
2022/07/03 01:42:23;;;;;;;;;;;15.20;99.90;;;;;;5081988;28;19928;-69
2022/07/03 01:44:51;;;;;;;;;;;15.20;99.90;;;;;;5082739;28;19954;-69
2022/07/03 01:47:19;;;;;;;;;;;15.10;99.90;;;;;;5082583;28;19920;-69
2022/07/03 01:49:45;;;;;;;;;;;15.10;99.90;;;;;;5082786;28;19921;-70
2022/07/03 01:52:12;;;;;;;;;;;15.10;99.90;;;;;;5085247;28;19974;-70
2022/07/03 01:54:39;;;;;;;;;;;15.00;99.90;;;;;;5085981;28;20250;-70
2022/07/03 01:57:06;;;;;;;;;;;14.90;99.90;;;;;;5086120;28;20011;-70
2022/07/03 01:59:35;;;;;;;;;;;15.00;99.90;;;;;;5085766;28;19991;-70
2022/07/03 02:02:05;;;;;;;;;;;14.90;99.90;;;;;;5086297;28;19943;-70
2022/07/03 02:04:33;;;;;;;;;;;14.90;99.90;;;;;;5085568;28;19952;-70
2022/07/03 02:07:03;;;;;;;;;;;14.90;99.90;;;;;;5085781;28;20254;-70
2022/07/03 02:09:36;;;;;;;;;;;14.80;99.90;;;;;;5085847;28;19987;-70
2022/07/03 02:12:03;;;;;;;;;;;14.80;99.90;;;;;;5085721;28;19921;-70
2022/07/03 02:14:32;;;;;;;;;;;14.80;99.90;;;;;;5085368;28;20124;-69
2022/07/03 02:17:04;;;;;;;;;;;14.80;99.90;;;;;;5085717;28;19920;-70
2022/07/03 02:19:34;;;;;;;;;;;14.80;99.90;;;;;;5085859;28;19959;-71
2022/07/03 02:22:02;;;;;;;;;;;14.70;99.90;;;;;;5085259;28;19920;-70
2022/07/03 02:24:31;;;;;;;;;;;14.80;99.90;;;;;;5084863;28;19991;-70
2022/07/03 02:27:01;;;;;;;;;;;14.80;99.90;;;;;;5085368;28;19935;-70
2022/07/03 02:29:32;;;;;;;;;;;14.70;99.90;;;;;;5085545;28;19991;-69
2022/07/03 02:32:03;;;;;;;;;;;14.60;99.90;;;;;;5085193;28;20238;-70
2022/07/03 02:34:31;;;;;;;;;;;14.60;99.90;;;;;;5084703;28;19927;-70
2022/07/03 02:36:59;;;;;;;;;;;14.60;99.90;;;;;;5084763;28;19920;-70
2022/07/03 02:39:27;;;;;;;;;;;14.60;99.90;;;;;;5085364;28;19931;-70
2022/07/03 02:41:58;;;;;;;;;;;14.60;99.90;;;;;;5085053;28;19962;-70
2022/07/03 02:44:27;;;;;;;;;;;14.50;99.90;;;;;;5083622;28;20131;-69
2022/07/03 02:47:03;;;;;;;;;;;14.50;99.90;;;;;;5085219;28;19952;-70
2022/07/03 02:49:44;;;;;;;;;;;14.50;99.90;;;;;;5065036;28;19927;-69
2022/07/03 02:52:14;;;;;;;;;;;14.40;99.90;;;;;;5083282;28;20112;-70
2022/07/03 02:54:46;;;;;;;;;;;14.40;99.90;;;;;;5083185;28;20120;-70
2022/07/03 02:57:14;;;;;;;;;;;14.40;99.90;;;;;;5085144;28;19921;-69
2022/07/03 02:59:46;;;;;;;;;;;14.40;99.90;;;;;;5084768;28;20009;-69
2022/07/03 03:02:15;;;;;;;;;;;14.40;99.90;;;;;;5083672;28;19924;-70
2022/07/03 03:04:44;;;;;;;;;;;14.40;99.90;;;;;;5084658;28;19944;-69
2022/07/03 03:07:14;;;;;;;;;;;14.40;99.90;;;;;;5084590;28;19948;-70
2022/07/03 03:09:41;;;;;;;;;;;14.40;99.90;;;;;;5084895;28;19955;-69
2022/07/03 03:12:09;;;;;;;;;;;14.40;99.90;;;;;;5084288;28;19928;-70
2022/07/03 03:14:39;;;;;;;;;;;14.30;99.90;;;;;;5084231;28;19943;-71
2022/07/03 03:17:06;;;;;;;;;;;14.30;99.90;;;;;;5084651;28;20119;-71
2022/07/03 03:19:37;;;;;;;;;;;14.30;99.90;;;;;;5084489;28;19944;-69
2022/07/03 03:22:07;;;;;;;;;;;14.30;99.90;;;;;;5084473;28;19975;-69
2022/07/03 03:24:34;;;;;;;;;;;14.30;99.90;;;;;;5084691;28;19920;-70
2022/07/03 03:27:01;;;;;;;;;;;14.20;99.90;;;;;;5084162;28;19920;-70
2022/07/03 03:29:28;;;;;;;;;;;14.20;99.90;;;;;;5084517;28;19965;-69
2022/07/03 03:31:55;;;;;;;;;;;14.20;99.90;;;;;;5084324;28;19954;-69
2022/07/03 03:34:22;;;;;;;;;;;14.20;99.90;;;;;;5083762;28;19948;-70
2022/07/03 03:36:50;;;;;;;;;;;14.20;99.90;;;;;;5084108;28;19987;-69
2022/07/03 03:39:17;;;;;;;;;;;14.10;99.90;;;;;;5084420;28;19959;-69
2022/07/03 03:41:44;;;;;;;;;;;14.10;99.90;;;;;;5084486;28;19920;-69
2022/07/03 03:44:11;;;;;;;;;;;14.10;99.90;;;;;;5083239;28;19936;-71
2022/07/03 03:46:37;;;;;;;;;;;14.10;99.90;;;;;;5084004;28;19992;-70
2022/07/03 03:49:05;;;;;;;;;;;14.10;99.90;;;;;;5084458;28;19927;-70
2022/07/03 03:51:32;;;;;;;;;;;14.00;99.90;;;;;;5084348;28;19927;-69
2022/07/03 03:54:03;;;;;;;;;;;14.00;99.90;;;;;;5083194;28;19920;-70
2022/07/03 03:56:30;;;;;;;;;;;14.00;99.90;;;;;;5083890;28;19925;-69
2022/07/03 03:58:56;;;;;;;;;;;14.00;99.90;;;;;;5084206;28;19960;-70
2022/07/03 04:01:23;;;;;;;;;;;14.00;99.90;;;;;;5083939;28;20015;-72
2022/07/03 04:03:50;;;;;;;;;;;13.90;99.90;;;;;;5083224;28;19921;-70
2022/07/03 04:06:16;;;;;;;;;;;13.90;99.90;;;;;;5083570;28;19935;-69
2022/07/03 04:08:43;;;;;;;;;;;13.90;99.90;;;;;;5083711;28;19960;-69
2022/07/03 04:11:11;;;;;;;;;;;13.90;99.90;;;;;;5083639;28;19951;-70
2022/07/03 04:13:38;;;;;;;;;;;13.90;99.90;;;;;;5082967;28;19920;-70
2022/07/03 04:16:05;;;;;;;;;;;13.90;99.90;;;;;;5083219;28;19963;-69
2022/07/03 04:18:31;;;;;;;;;;;14.00;99.90;;;;;;5083496;28;20200;-70
2022/07/03 04:20:58;;;;;;;;;;;14.00;99.90;;;;;;5083474;28;19984;-70
2022/07/03 04:23:25;;;;;;;;;;;14.10;99.90;;;;;;5082904;28;19920;-69
2022/07/03 04:25:51;;;;;;;;;;;14.20;99.90;;;;;;5083136;28;19963;-70
2022/07/03 04:28:19;;;;;;;;;;;14.20;99.90;;;;;;5083068;28;20097;-70
2022/07/03 04:30:46;;;;;;;;;;;14.30;99.90;;;;;;5080692;28;19920;-70
2022/07/03 04:33:13;;;;;;;;;;;14.40;99.90;;;;;;5079496;28;19920;-70
2022/07/03 04:35:39;;;;;;;;;;;14.40;99.90;;;;;;5082967;28;19921;-69
2022/07/03 04:38:06;;;;;;;;;;;14.50;99.90;;;;;;5080372;28;19958;-70
2022/07/03 04:40:33;;;;;;;;;;;14.60;99.90;;;;;;5080496;28;19963;-69
2022/07/03 04:42:59;;;;;;;;;;;14.70;99.90;;;;;;5082348;28;19955;-69
2022/07/03 04:45:27;;;;;;;;;;;14.80;99.90;;;;;;5083039;28;19960;-71
2022/07/03 04:47:54;;;;;;;;;;;14.90;99.90;;;;;;5082821;28;19975;-71
2022/07/03 04:50:21;;;;;;;;;;;15.00;99.90;;;;;;5082627;28;19928;-70
2022/07/03 04:52:47;;;;;;;;;;;15.10;99.90;;;;;;5081655;28;19963;-69
2022/07/03 04:55:14;;;;;;;;;;;15.20;99.90;;;;;;5081659;28;19962;-69
2022/07/03 04:57:41;;;;;;;;;;;15.30;99.90;;;;;;5081240;28;19984;-70
2022/07/03 05:00:08;;;;;;;;;;;15.40;99.90;;;;;;5082891;28;19920;-70
2022/07/03 05:02:36;;;;;;;;;;;15.60;99.90;;;;;;5082403;28;19959;-70
2022/07/03 05:05:03;;;;;;;;;;;15.70;99.90;;;;;;5083198;28;19921;-70
2022/07/03 05:07:29;;;;;;;;;;;15.80;99.90;;;;;;5081997;28;20163;-70
2022/07/03 05:09:57;;;;;;;;;;;15.90;99.90;;;;;;5082707;28;20176;-69
2022/07/03 05:12:23;;;;;;;;;;;16.10;99.90;;;;;;5082534;28;20134;-70
2022/07/03 05:14:50;;;;;;;;;;;16.20;99.90;;;;;;5082922;28;20231;-69
2022/07/03 05:17:17;;;;;;;;;;;16.30;99.90;;;;;;5091474;22;19959;-67
2022/07/03 05:19:45;;;;;;;;;;;16.40;99.90;;;;;;5063932;28;19948;-67
2022/07/03 05:22:12;;;;;;;;;;;16.40;99.90;;;;;;5064170;28;19959;-67
2022/07/03 05:24:38;;;;;;;;;;;16.60;99.90;;;;;;5062814;28;19920;-67
2022/07/03 05:27:05;;;;;;;;;;;16.70;99.90;;;;;;5065662;28;19971;-67
2022/07/03 05:29:32;;;;;;;;;;;16.80;99.90;;;;;;5063182;28;19928;-66
2022/07/03 05:31:59;;;;;;;;;;;16.90;99.90;;;;;;5066726;28;19959;-67
2022/07/03 05:34:25;;;;;;;;;;;17.00;99.90;;;;;;5054885;28;20179;-67
2022/07/03 05:36:53;;;;;;;;;;;17.20;99.90;;;;;;5063581;28;19959;-67
2022/07/03 05:42:10;;;;;;;;;;;17.40;99.90;;;;;;5049662;28;19923;-67
2022/07/03 05:44:36;;;;;;;;;;;17.60;99.90;;;;;;5066041;28;19921;-67
2022/07/03 05:47:03;;;;;;;;;;;17.70;99.90;;;;;;5065878;28;19956;-67
2022/07/03 05:49:30;;;;;;;;;;;17.70;99.90;;;;;;5065909;28;19920;-67
2022/07/03 05:51:58;;;;;;;;;;;17.90;99.90;;;;;;5065605;28;19921;-67
2022/07/03 05:54:24;;;;;;;;;;;18.00;99.90;;;;;;5065607;28;19966;-67
2022/07/03 05:56:51;;;;;;;;;;;18.20;99.90;;;;;;5065915;28;19928;-67
2022/07/03 05:59:18;;;;;;;;;;;18.30;99.90;;;;;;5066250;28;19963;-67
2022/07/03 06:01:44;;;;;;;;;;;18.40;99.90;;;;;;5066062;28;19956;-67
2022/07/03 06:04:11;;;;;;;;;;;18.50;99.90;;;;;;5065946;28;19930;-67
2022/07/03 06:06:37;;;;;;;;;;;18.70;99.90;;;;;;5066092;28;19988;-67
2022/07/03 06:09:05;;;;;;;;;;;18.80;99.90;;;;;;5065735;28;19951;-67
2022/07/03 06:11:32;;;;;;;;;;;18.90;99.90;;;;;;5065216;28;19996;-67
2022/07/03 06:13:59;;;;;;;;;;;19.00;99.90;;;;;;5065063;28;19944;-67
2022/07/03 06:16:25;;;;;;;;;;;19.20;99.90;;;;;;5064811;28;19928;-67
2022/07/03 06:18:52;;;;;;;;;;;19.30;99.90;;;;;;5065095;28;19983;-67
2022/07/03 06:21:19;;;;;;;;;;;19.40;99.90;;;;;;5065187;28;19952;-67
2022/07/03 06:23:45;;;;;;;;;;;19.50;99.90;;;;;;5064915;28;20117;-67
2022/07/03 06:26:14;;;;;;;;;;;19.60;99.90;;;;;;5065717;28;20239;-67
2022/07/03 06:28:40;;;;;;;;;;;19.70;99.90;;;;;;5065586;28;19928;-67
2022/07/03 06:31:07;;;;;;;;;;;19.80;99.90;;;;;;5065784;28;19927;-67
2022/07/03 06:33:34;;;;;;;;;;;19.80;99.90;;;;;;5065572;28;20258;-67
2022/07/03 06:36:00;;;;;;;;;;;19.90;99.90;;;;;;5066961;28;19959;-67
2022/07/03 06:38:27;;;;;;;;;;;20.00;99.90;;;;;;5065148;28;19975;-67
2022/07/03 06:40:54;;;;;;;;;;;20.10;99.90;;;;;;5064740;28;20232;-67
2022/07/03 06:43:22;;;;;;;;;;;20.20;99.90;;;;;;5065207;28;19958;-67
2022/07/03 06:45:48;;;;;;;;;;;20.30;99.90;;;;;;5065705;28;20204;-66
2022/07/03 06:48:15;;;;;;;;;;;20.30;99.90;;;;;;5065602;28;19927;-66
2022/07/03 06:50:42;;;;;;;;;;;20.50;99.90;;;;;;5065392;28;19928;-66
2022/07/03 06:53:08;;;;;;;;;;;20.50;99.90;;;;;;5065283;28;20116;-67
2022/07/03 06:55:35;;;;;;;;;;;20.60;99.90;;;;;;5064895;28;20264;-67
2022/07/03 06:58:02;;;;;;;;;;;20.80;99.90;;;;;;5064627;28;20231;-67
2022/07/03 07:00:30;;;;;;;;;;;20.90;99.90;;;;;;5065458;28;19963;-67
2022/07/03 07:02:56;;;;;;;;;;;21.00;99.90;;;;;;5064288;28;19921;-66
2022/07/03 07:05:23;;;;;;;;;;;21.00;99.90;;;;;;5065008;28;20084;-67
2022/07/03 07:07:50;;;;;;;;;;;21.10;99.90;;;;;;5064880;28;19928;-67
2022/07/03 07:10:16;;;;;;;;;;;21.20;99.90;;;;;;5065031;28;19956;-67
2022/07/03 07:12:43;;;;;;;;;;;21.30;99.90;;;;;;5064369;28;19928;-66
2022/07/03 07:15:10;;;;;;;;;;;21.30;99.90;;;;;;5065210;28;20218;-66
2022/07/03 07:17:38;;;;;;;;;;;21.50;99.90;;;;;;5063864;28;19952;-67
2022/07/03 07:20:06;;;;;;;;;;;21.50;99.90;;;;;;5064398;28;20194;-66
2022/07/03 07:22:32;;;;;;;;;;;21.60;99.90;;;;;;5064588;28;19959;-67
2022/07/03 07:24:59;;;;;;;;;;;21.60;99.90;;;;;;5064660;28;19956;-67
2022/07/03 07:27:28;;;;;;;;;;;21.70;99.90;;;;;;5064054;28;19987;-67
2022/07/03 07:29:54;;;;;;;;;;;21.80;99.90;;;;;;5064916;28;19952;-67
2022/07/03 07:32:21;;;;;;;;;;;21.80;99.90;;;;;;5064494;28;19928;-67
2022/07/03 07:34:49;;;;;;;;;;;21.90;99.90;;;;;;5064759;28;19928;-66
2022/07/03 07:37:16;;;;;;;;;;;22.00;99.90;;;;;;5064308;28;19956;-67
2022/07/03 07:39:42;;;;;;;;;;;22.10;99.90;;;;;;5064289;28;19928;-67
2022/07/03 07:42:09;;;;;;;;;;;22.20;99.90;;;;;;5064060;28;20250;-67
2022/07/03 07:44:36;;;;;;;;;;;22.30;99.90;;;;;;5064007;28;19941;-67
2022/07/03 07:47:03;;;;;;;;;;;22.40;99.90;;;;;;5064146;28;19952;-67
2022/07/03 07:49:29;;;;;;;;;;;22.50;99.90;;;;;;5063838;28;20105;-66
2022/07/03 07:51:57;;;;;;;;;;;22.60;99.90;;;;;;5064007;28;20250;-66
2022/07/03 07:54:24;;;;;;;;;;;22.60;99.90;;;;;;5064197;28;19948;-66
2022/07/03 07:56:53;;;;;;;;;;;22.70;99.90;;;;;;5063638;28;19956;-67
2022/07/03 07:59:19;;;;;;;;;;;22.70;99.90;;;;;;5064138;28;19967;-66
2022/07/03 08:07:15;;;;;;;;;;;23.00;99.90;;;;;;5063515;28;20262;-65
2022/07/03 08:09:42;;;;;;;;;;;23.10;99.90;;;;;;5063499;28;19920;-65
2022/07/03 08:12:09;;;;;;;;;;;23.20;99.90;;;;;;5063345;28;19921;-66
2022/07/03 08:14:36;;;;;;;;;;;23.20;99.90;;;;;;5063315;28;19997;-65
2022/07/03 08:17:02;;;;;;;;;;;23.30;99.90;;;;;;5063496;28;19959;-65
2022/07/03 08:19:29;;;;;;;;;;;23.40;99.90;;;;;;5063578;28;19960;-65
2022/07/03 08:21:56;;;;;;;;;;;23.40;99.90;;;;;;5062856;28;19928;-65
2022/07/03 08:24:24;;;;;;;;;;;23.60;99.90;;;;;;5063036;28;19927;-65
2022/07/03 08:26:50;;;;;;;;;;;23.60;99.90;;;;;;5055676;28;19921;-66
2022/07/03 08:29:17;;;;;;;;;;;23.70;99.90;;;;;;5060601;28;19963;-66
2022/07/03 08:31:44;;;;;;;;;;;23.80;99.90;;;;;;5060594;28;19948;-66
2022/07/03 08:34:13;;;;;;;;;;;23.90;99.90;;;;;;5059541;28;20175;-65
2022/07/03 08:36:41;;;;;;;;;;;23.90;99.90;;;;;;5060931;28;19935;-66
2022/07/03 08:39:07;;;;;;;;;;;24.00;99.90;;;;;;5061126;28;19984;-68
2022/07/03 08:41:37;;;;;;;;;;;24.00;99.90;;;;;;5061714;28;20324;-67
2022/07/03 08:44:04;;;;;;;;;;;24.10;99.90;;;;;;5061302;28;20112;-67
2022/07/03 08:46:32;;;;;;;;;;;24.20;99.90;;;;;;5059805;28;19979;-67
2022/07/03 08:49:00;;;;;;;;;;;24.20;99.90;;;;;;5062028;28;19935;-68
2022/07/03 08:51:27;;;;;;;;;;;24.20;99.90;;;;;;5059327;28;20242;-68
2022/07/03 08:53:54;;;;;;;;;;;24.30;99.90;;;;;;5058074;28;19927;-67
2022/07/03 08:56:21;;;;;;;;;;;24.30;99.90;;;;;;5042669;28;19921;-66
2022/07/03 08:58:49;;;;;;;;;;;24.40;99.90;;;;;;5042859;28;19921;-69
2022/07/03 09:01:16;;;;;;;;;;;24.40;99.90;;;;;;5045487;28;20179;-66
2022/07/03 09:03:43;;;;;;;;;;;24.50;99.90;;;;;;5059893;28;20097;-67
2022/07/03 09:06:10;;;;;;;;;;;24.60;99.90;;;;;;5067694;28;19956;-67
2022/07/03 09:08:37;;;;;;;;;;;24.60;99.90;;;;;;5067035;28;19963;-67
2022/07/03 09:11:04;;;;;;;;;;;24.70;99.90;;;;;;5056661;28;19993;-67
2022/07/03 09:13:31;;;;;;;;;;;24.80;99.90;;;;;;5051273;28;19982;-68
2022/07/03 09:15:59;;;;;;;;;;;24.80;99.90;;;;;;5066602;28;20254;-68
2022/07/03 09:18:39;;;;;;;;;;;24.90;99.90;;;;;;5065895;28;19952;-67
2022/07/03 09:21:06;;;;;;;;;;;25.00;99.90;;;;;;5066203;28;20335;-66
2022/07/03 09:23:36;;;;;;;;;;;25.00;99.90;;;;;;5066765;28;19988;-66
2022/07/03 09:26:04;;;;;;;;;;;25.10;99.90;;;;;;5066420;28;20259;-66
2022/07/03 09:28:47;;;;;;;;;;;25.10;99.90;;;;;;5066888;28;19927;-66
2022/07/03 09:31:16;;;;;;;;;;;25.20;99.90;;;;;;5066439;28;19920;-67
2022/07/03 09:33:56;;;;;;;;;;;25.30;99.90;;;;;;5066554;28;19968;-66
2022/07/03 09:36:23;;;;;;;;;;;25.30;99.90;;;;;;5066662;28;19971;-67
2022/07/03 09:38:50;;;;;;;;;;;25.40;99.90;;;;;;5066422;28;20104;-67
2022/07/03 09:41:17;;;;;;;;;;;25.50;99.40;;;;;;5066555;28;19996;-67
2022/07/03 09:43:44;;;;;;;;;;;25.60;98.70;;;;;;5065622;28;19927;-66
2022/07/03 09:46:11;;;;;;;;;;;25.60;98.90;;;;;;5065280;28;20216;-68
2022/07/03 09:48:40;;;;;;;;;;;25.60;98.60;;;;;;5066006;28;20175;-66
2022/07/03 09:51:14;;;;;;;;;;;25.70;98.70;;;;;;5065709;28;19927;-66
2022/07/03 09:53:45;;;;;;;;;;;25.70;98.50;;;;;;5064936;28;19928;-66
2022/07/03 09:56:12;;;;;;;;;;;25.80;98.90;;;;;;5060298;28;19941;-65
2022/07/03 09:58:39;;;;;;;;;;;25.90;99.40;;;;;;5065250;28;20207;-66
2022/07/03 10:01:16;;;;;;;;;;;26.10;97.30;;;;;;5064229;28;19920;-68
2022/07/03 10:03:44;;;;;;;;;;;26.10;97.00;;;;;;5064576;28;19959;-68
2022/07/03 10:06:11;;;;;;;;;;;26.20;97.10;;;;;;5059381;28;19928;-68
2022/07/03 10:08:38;;;;;;;;;;;26.20;96.80;;;;;;5065844;28;19927;-68
2022/07/03 10:11:05;;;;;;;;;;;26.30;97.40;;;;;;5065190;28;19952;-68
2022/07/03 10:13:33;;;;;;;;;;;26.40;98.00;;;;;;5063942;28;20259;-68
2022/07/03 10:16:00;;;;;;;;;;;26.50;97.30;;;;;;5064834;28;19920;-67
2022/07/03 10:18:30;;;;;;;;;;;26.60;95.80;;;;;;5065022;28;19921;-67
2022/07/03 10:20:59;;;;;;;;;;;26.70;96.30;;;;;;5062002;28;19967;-66
2022/07/03 10:23:27;;;;;;;;;;;26.80;95.80;;;;;;5065485;28;19929;-66
2022/07/03 10:25:54;;;;;;;;;;;26.80;96.20;;;;;;5065659;28;19952;-67
2022/07/03 10:28:21;;;;;;;;;;;26.90;96.90;;;;;;5065706;28;19921;-67
2022/07/03 10:30:48;;;;;;;;;;;27.10;95.10;;;;;;5065159;28;19959;-66
2022/07/03 10:33:15;;;;;;;;;;;27.20;95.50;;;;;;5065450;28;20242;-68
2022/07/03 10:35:43;;;;;;;;;;;27.30;94.20;;;;;;5065383;28;19948;-68
2022/07/03 10:38:30;;;;;;;;;;;27.30;94.70;;;;;;5065730;28;19921;-68
2022/07/03 10:46:29;;;;;;;;;;;27.50;93.00;;;;;;5065497;28;20011;-68
2022/07/03 10:49:03;;;;;;;;;;;27.50;92.70;;;;;;5065654;28;19959;-68
2022/07/03 10:51:31;;;;;;;;;;;27.50;93.30;;;;;;5065316;28;20208;-68
2022/07/03 10:54:13;;;;;;;;;;;27.60;93.20;;;;;;5065113;28;20182;-68
2022/07/03 10:56:55;;;;;;;;;;;27.80;93.30;;;;;;5045206;28;19921;-68
2022/07/03 10:59:23;;;;;;;;;;;27.90;93.10;;;;;;5044433;28;19933;-67
2022/07/03 11:01:49;;;;;;;;;;;28.00;92.70;;;;;;5059472;28;19921;-68
2022/07/03 11:04:16;;;;;;;;;;;28.00;93.10;;;;;;5064763;28;19948;-68
2022/07/03 11:06:57;;;;;;;;;;;28.10;93.40;;;;;;5065276;28;19948;-68
2022/07/03 11:09:24;;;;;;;;;;;28.20;92.10;;;;;;5062676;28;20177;-67
2022/07/03 11:11:57;;;;;;;;;;;28.30;92.40;;;;;;5061666;28;19928;-68
2022/07/03 11:14:25;;;;;;;;;;;28.30;91.70;;;;;;5064482;28;19928;-69
2022/07/03 11:19:40;;;;;;;;;;;28.40;93.00;;;;;;5082603;28;19951;-72
2022/07/03 11:22:10;;;;;;;;;;;28.60;93.40;;;;;;5084170;28;19962;-73
2022/07/03 11:24:39;;;;;;;;;;;28.70;92.80;;;;;;5083690;28;20141;-72
2022/07/03 11:27:17;;;;;;;;;;;28.90;93.80;;;;;;5074673;28;20112;-72
2022/07/03 11:29:49;;;;;;;;;;;29.10;93.60;;;;;;5051189;28;19948;-72
2022/07/03 11:32:30;;;;;;;;;;;29.20;91.40;;;;;;5063882;28;19988;-71
2022/07/03 11:34:57;;;;;;;;;;;29.30;90.60;;;;;;5038471;28;20241;-72
2022/07/03 11:37:24;;;;;;;;;;;29.40;89.40;;;;;;5055526;28;19921;-71
2022/07/03 11:39:51;;;;;;;;;;;29.50;90.60;;;;;;5055365;28;19952;-72
2022/07/03 11:42:18;;;;;;;;;;;29.50;90.40;;;;;;5052706;28;20175;-72
2022/07/03 11:44:47;;;;;;;;;;;29.60;91.00;;;;;;5052604;28;19992;-72
2022/07/03 11:47:14;;;;;;;;;;;29.70;90.10;;;;;;5057181;28;19929;-70
2022/07/03 11:49:48;;;;;;;;;;;29.60;89.30;;;;;;5063859;28;19983;-72
2022/07/03 11:52:14;;;;;;;;;;;29.70;89.90;;;;;;5060889;28;20250;-71
2022/07/03 11:54:50;;;;;;;;;;;29.90;89.80;;;;;;5061507;28;19928;-72
2022/07/03 11:57:17;;;;;;;;;;;30.00;90.10;;;;;;5062892;28;19920;-72
2022/07/03 11:59:44;;;;;;;;;;;30.20;89.30;;;;;;5061303;28;19952;-72
2022/07/03 12:02:12;;;;;;;;;;;30.30;87.10;;;;;;5061348;28;19956;-72
2022/07/03 12:04:40;;;;;;;;;;;30.30;87.60;;;;;;5061398;28;19997;-72
2022/07/03 12:07:07;;;;;;;;;;;30.30;89.00;;;;;;5063587;28;19960;-72
2022/07/03 12:09:34;;;;;;;;;;;30.30;87.10;;;;;;5063124;28;19928;-72
2022/07/03 12:12:02;;;;;;;;;;;30.40;85.80;;;;;;5063089;28;19967;-71
2022/07/03 12:14:37;;;;;;;;;;;30.40;87.20;;;;;;5062686;28;20986;-71
2022/07/03 12:17:04;;;;;;;;;;;30.50;85.20;;;;;;5063131;28;20124;-72
2022/07/03 12:19:32;;;;;;;;;;;30.60;84.30;;;;;;5063410;28;20168;-69
2022/07/03 12:21:59;;;;;;;;;;;30.60;85.90;;;;;;5062157;28;19959;-72
2022/07/03 12:24:26;;;;;;;;;;;30.60;84.20;;;;;;5062967;28;19963;-72
2022/07/03 12:26:53;;;;;;;;;;;30.80;87.20;;;;;;5062499;28;19959;-72
2022/07/03 12:29:20;;;;;;;;;;;30.70;85.10;;;;;;5063128;28;19948;-70
2022/07/03 12:31:47;;;;;;;;;;;30.90;85.10;;;;;;5061726;28;19960;-71
2022/07/03 12:34:15;;;;;;;;;;;31.00;85.60;;;;;;5062298;28;19921;-71
2022/07/03 12:36:54;;;;;;;;;;;31.10;85.90;;;;;;5062085;28;19928;-70
2022/07/03 12:39:21;;;;;;;;;;;31.20;84.10;;;;;;5062944;28;19928;-70
2022/07/03 12:41:47;;;;;;;;;;;31.40;83.90;;;;;;5062917;28;20000;-68
2022/07/03 12:44:18;;;;;;;;;;;31.60;82.80;;;;;;5059129;28;19956;-71
2022/07/03 12:46:45;;;;;;;;;;;31.60;82.00;;;;;;5057483;28;19920;-71
2022/07/03 12:49:12;;;;;;;;;;;31.60;82.40;;;;;;5061501;28;19963;-71
2022/07/03 12:51:40;;;;;;;;;;;31.70;82.60;;;;;;5061841;28;20131;-71
2022/07/03 12:54:08;;;;;;;;;;;31.80;81.10;;;;;;5062036;28;19928;-68
2022/07/03 12:56:35;;;;;;;;;;;31.90;83.10;;;;;;5059870;28;20246;-71
2022/07/03 12:59:19;;;;;;;;;;;32.10;81.60;;;;;;5058760;28;19920;-70
2022/07/03 13:01:46;;;;;;;;;;;32.00;79.40;;;;;;5062604;28;19924;-71
2022/07/03 13:04:17;;;;;;;;;;;32.00;79.10;;;;;;5061682;28;19975;-71
2022/07/03 13:06:45;;;;;;;;;;;32.00;77.20;;;;;;5062752;28;19924;-71
2022/07/03 13:09:13;;;;;;;;;;;31.90;76.80;;;;;;5062323;28;19921;-71
2022/07/03 13:11:40;;;;;;;;;;;31.90;74.90;;;;;;5062176;28;19963;-71
2022/07/03 13:14:08;;;;;;;;;;;31.90;74.70;;;;;;5061696;28;19921;-69
2022/07/03 13:16:42;;;;;;;;;;;31.90;74.00;;;;;;5062469;28;20204;-71
2022/07/03 13:19:10;;;;;;;;;;;31.90;76.00;;;;;;5062210;28;19921;-69
2022/07/03 13:21:37;;;;;;;;;;;32.00;76.70;;;;;;5062510;28;19960;-68
2022/07/03 13:24:04;;;;;;;;;;;32.20;76.80;;;;;;5061671;28;20200;-71
2022/07/03 13:26:32;;;;;;;;;;;32.40;76.40;;;;;;5062897;28;19927;-71
2022/07/03 13:28:59;;;;;;;;;;;32.60;74.60;;;;;;5061935;28;19959;-69
2022/07/03 13:31:25;;;;;;;;;;;32.80;73.80;;;;;;5061848;28;19952;-71
2022/07/03 13:33:52;;;;;;;;;;;32.90;73.90;;;;;;5061491;28;19948;-71
2022/07/03 13:36:19;;;;;;;;;;;32.90;75.00;;;;;;5062318;28;19948;-71
2022/07/03 13:38:45;;;;;;;;;;;32.90;73.60;;;;;;5062671;28;20054;-68
2022/07/03 13:41:12;;;;;;;;;;;32.80;73.30;;;;;;5062723;28;19956;-71
2022/07/03 13:43:40;;;;;;;;;;;32.90;72.20;;;;;;5060961;28;20223;-71
2022/07/03 13:46:07;;;;;;;;;;;32.90;72.80;;;;;;5058234;28;20220;-71
2022/07/03 13:48:34;;;;;;;;;;;33.00;73.10;;;;;;5066038;28;19928;-71
2022/07/03 13:51:00;;;;;;;;;;;32.90;72.90;;;;;;5060167;28;20170;-71
2022/07/03 13:53:27;;;;;;;;;;;33.10;73.30;;;;;;5060305;28;19959;-70
2022/07/03 13:55:55;;;;;;;;;;;33.30;71.30;;;;;;5065698;28;19957;-70
2022/07/03 13:58:21;;;;;;;;;;;33.30;72.10;;;;;;5059801;28;19952;-71
2022/07/03 14:00:49;;;;;;;;;;;33.30;69.80;;;;;;5057068;28;19957;-71
2022/07/03 14:03:16;;;;;;;;;;;33.20;72.10;;;;;;5058425;28;19996;-71
2022/07/03 14:05:43;;;;;;;;;;;33.40;71.40;;;;;;5064539;28;20208;-71
2022/07/03 14:08:09;;;;;;;;;;;33.60;70.50;;;;;;5065098;28;19921;-71
2022/07/03 14:10:36;;;;;;;;;;;33.60;68.20;;;;;;5065554;28;19920;-71
2022/07/03 14:13:03;;;;;;;;;;;33.50;67.40;;;;;;5065433;28;19956;-68
2022/07/03 14:15:29;;;;;;;;;;;33.40;67.30;;;;;;5064459;28;19964;-68
2022/07/03 14:17:59;;;;;;;;;;;33.50;67.10;;;;;;5065559;28;19920;-69
2022/07/03 14:20:26;;;;;;;;;;;33.50;68.90;;;;;;5065139;28;19920;-69
2022/07/03 14:22:53;;;;;;;;;;;33.40;67.10;;;;;;5064595;28;19927;-69
2022/07/03 14:25:19;;;;;;;;;;;33.40;69.50;;;;;;5064818;28;20283;-68
2022/07/03 14:33:16;;;;;;;;;;;33.70;68.80;;;;;;5053748;28;19923;-71
2022/07/03 14:35:43;;;;;;;;;;;33.70;68.50;;;;;;5064698;28;20246;-69
2022/07/03 14:38:09;;;;;;;;;;;33.70;69.10;;;;;;5065165;28;19959;-69
2022/07/03 14:40:36;;;;;;;;;;;33.70;70.10;;;;;;5065292;28;19952;-71
2022/07/03 14:43:03;;;;;;;;;;;33.70;68.90;;;;;;5064494;28;19921;-69